Time;durP1;ratioP1;P1;durP2;ratioP2;P2;SDS_P1;SDS_P2;PMS_P1;PMS_P2;Temp;Humidity;BMP_temperature;BMP_pressure;BME280_temperature;BME280_humidity;BME280_pressure;Samples;Min_cycle;Max_cycle;Signal;HPM_P1;HPM_P2
2022/12/27 00:00:50;;;;;;;13.48;8.98;;;;;;;21.96;42.92;95667.13;5040524;28;20129;-64
2022/12/27 00:03:15;;;;;;;12.60;8.68;;;;;;;21.98;42.94;95661.94;5031819;28;20044;-63
2022/12/27 00:05:42;;;;;;;12.27;8.50;;;;;;;21.42;42.66;95574.28;5045217;28;20426;-64
2022/12/27 00:08:08;;;;;;;13.23;9.38;;;;;;;21.93;43.05;95662.66;5025487;28;20036;-63
2022/12/27 00:10:33;;;;;;;12.43;8.90;;;;;;;21.94;42.79;95664.16;5047274;28;20069;-64
2022/12/27 00:12:59;;;;;;;11.45;8.13;;;;;;;20.45;42.71;95436.44;5028420;28;20048;-64
2022/12/27 00:15:24;;;;;;;12.02;8.52;;;;;;;21.37;42.91;95615.72;5035277;28;20098;-63
2022/12/27 00:17:50;;;;;;;12.07;8.20;;;;;;;21.84;42.96;95636.84;5066376;28;20133;-64
2022/12/27 00:20:15;;;;;;;11.85;9.05;;;;;;;21.92;43.00;95659.66;5066851;28;20040;-64
2022/12/27 00:22:40;;;;;;;12.07;8.73;;;;;;;21.89;42.92;95657.91;5048989;28;20885;-63
2022/12/27 00:25:07;;;;;;;12.02;8.57;;;;;;;21.73;43.06;95631.34;5066623;28;20052;-63
2022/12/27 00:27:32;;;;;;;13.40;9.43;;;;;;;21.87;43.13;95654.91;5039203;28;20143;-63
2022/12/27 00:29:57;;;;;;;11.50;8.88;;;;;;;20.89;42.90;95493.84;5051891;28;20075;-63
2022/12/27 00:32:23;;;;;;;12.20;8.95;;;;;;;21.36;42.93;95570.00;5030235;28;20025;-64
2022/12/27 00:34:48;;;;;;;12.43;9.10;;;;;;;21.74;43.00;95633.59;5066003;28;20048;-64
2022/12/27 00:37:14;;;;;;;11.80;8.80;;;;;;;21.73;42.99;95636.78;5050497;28;20029;-63
2022/12/27 00:39:39;;;;;;;12.23;8.93;;;;;;;21.63;42.88;95621.91;5053097;28;20037;-63
2022/12/27 00:42:05;;;;;;;12.18;9.20;;;;;;;21.72;43.02;95651.59;5030047;28;20624;-63
2022/12/27 00:44:30;;;;;;;12.25;8.73;;;;;;;21.71;42.95;95658.28;5046795;28;20444;-63
2022/12/27 00:46:56;;;;;;;12.50;8.90;;;;;;;21.77;43.07;95664.50;5046339;28;20037;-63
2022/12/27 00:49:21;;;;;;;11.75;8.57;;;;;;;21.82;43.10;95671.94;5023783;28;20141;-63
2022/12/27 00:51:46;;;;;;;13.05;9.18;;;;;;;21.83;42.95;95673.44;5039266;28;20505;-63
2022/12/27 00:54:12;;;;;;;12.65;8.68;;;;;;;21.77;43.10;95669.94;5050381;28;20523;-63
2022/12/27 00:56:37;;;;;;;11.98;9.20;;;;;;;21.58;43.06;95653.25;5046653;28;20029;-63
2022/12/27 00:59:03;;;;;;;12.13;9.60;;;;;;;21.77;43.07;95683.53;5048615;28;20485;-63
2022/12/27 01:01:30;;;;;;;13.00;9.48;;;;;;;21.78;42.98;95701.31;5031485;28;20040;-64
2022/12/27 01:03:56;;;;;;;12.60;9.35;;;;;;;21.77;43.10;95669.94;5047446;28;20501;-63
2022/12/27 01:06:22;;;;;;;11.50;8.98;;;;;;;21.77;43.05;95678.09;5045828;28;20132;-63
2022/12/27 01:08:48;;;;;;;12.88;9.20;;;;;;;21.77;43.06;95686.25;5048312;28;20490;-64
2022/12/27 01:11:14;;;;;;;12.60;9.10;;;;;;;21.67;43.08;95660.47;5066769;28;20036;-63
2022/12/27 01:13:40;;;;;;;11.98;9.00;;;;;;;21.66;43.02;95661.69;5048036;28;20067;-63
2022/12/27 01:16:15;;;;;;;12.48;9.20;;;;;;;21.72;43.21;95673.34;5047814;28;20532;-62
2022/12/27 01:18:40;;;;;;;11.55;8.48;;;;;;;21.74;43.15;95673.63;5047842;28;20131;-63
2022/12/27 01:21:07;;;;;;;11.95;9.50;;;;;;;21.74;43.29;95676.34;5065171;28;20585;-64
2022/12/27 01:23:33;;;;;;;10.95;8.30;;;;;;;21.60;42.83;95652.75;5046097;28;20021;-63
2022/12/27 01:26:06;;;;;;;11.98;8.88;;;;;;;21.68;43.15;95667.38;5047371;28;20038;-63
2022/12/27 01:28:31;;;;;;;12.55;9.18;;;;;;;21.72;43.15;95665.19;5025213;28;20051;-63
2022/12/27 01:30:57;;;;;;;12.48;9.07;;;;;;;21.70;43.22;95670.38;5065538;28;20425;-64
2022/12/27 01:33:22;;;;;;;12.93;9.50;;;;;;;21.70;43.21;95654.81;5064885;28;20533;-63
2022/12/27 01:35:48;;;;;;;12.20;9.00;;;;;;;21.65;43.25;95662.91;5063133;28;20033;-63
2022/12/27 01:38:13;;;;;;;12.27;8.75;;;;;;;21.68;43.14;95659.25;5058430;28;20024;-64
2022/12/27 01:40:39;;;;;;;11.68;9.02;;;;;;;21.61;43.07;95651.50;5064845;28;20062;-63
2022/12/27 01:43:04;;;;;;;14.27;9.55;;;;;;;21.67;43.15;95665.91;5064838;28;20454;-63
2022/12/27 01:45:34;;;;;;;12.18;9.68;;;;;;;21.63;43.13;95649.06;5064280;28;20048;-62
2022/12/27 01:48:15;;;;;;;13.63;9.30;;;;;;;21.66;43.10;95675.28;5030379;28;20053;-63
2022/12/27 01:50:43;;;;;;;11.07;8.52;;;;;;;21.64;43.19;95664.13;5058564;28;20025;-63
2022/12/27 01:53:22;;;;;;;12.32;9.45;;;;;;;21.55;43.26;95642.56;5027624;28;20125;-63
2022/12/27 01:56:02;;;;;;;12.68;9.20;;;;;;;21.28;43.09;95596.13;5012581;28;20068;-63
2022/12/27 01:58:30;;;;;;;11.63;9.00;;;;;;;21.63;43.37;95646.34;5010334;28;20086;-63
2022/12/27 02:00:56;;;;;;;12.48;9.43;;;;;;;21.40;42.97;95636.47;5017516;28;20068;-64
2022/12/27 02:03:23;;;;;;;13.65;9.32;;;;;;;21.54;43.21;95641.09;5027465;28;21020;-63
2022/12/27 02:05:49;;;;;;;13.75;9.23;;;;;;;21.63;42.98;95654.50;5048605;28;20040;-63
2022/12/27 02:08:36;;;;;;;12.40;9.55;;;;;;;21.62;43.18;95647.56;5030875;28;20035;-62
2022/12/27 02:11:03;;;;;;;12.27;9.07;;;;;;;21.64;43.15;95654.03;5058998;28;20061;-62
2022/12/27 02:13:28;;;;;;;12.57;9.02;;;;;;;21.41;43.11;95610.81;5046902;28;20135;-64
2022/12/27 02:15:54;;;;;;;11.35;8.80;;;;;;;21.42;43.13;95617.75;5045469;28;20044;-63
2022/12/27 02:18:19;;;;;;;13.80;9.82;;;;;;;21.46;43.20;95640.03;5045897;28;20586;-62
2022/12/27 02:21:10;;;;;;;10.85;8.43;;;;;;;21.58;43.22;95641.59;5029207;28;20086;-63
2022/12/27 02:24:03;;;;;;;12.15;8.75;;;;;;;21.59;43.18;95648.53;5043245;28;20017;-63
2022/12/27 02:27:04;;;;;;;12.10;8.93;;;;;;;21.59;43.07;95648.53;5057505;28;20115;-63
2022/12/27 02:29:52;;;;;;;12.35;8.63;;;;;;;21.57;43.16;95653.72;5056925;28;20121;-62
2022/12/27 02:32:28;;;;;;;12.55;9.50;;;;;;;21.57;43.12;95678.19;5034642;28;20079;-64
2022/12/27 02:35:07;;;;;;;12.02;9.00;;;;;;;21.55;43.28;95653.44;5040129;28;20063;-62
2022/12/27 02:37:34;;;;;;;13.93;9.70;;;;;;;21.55;43.29;95650.72;5053901;28;20106;-63
2022/12/27 02:53:02;;;;;;;12.60;9.30;;;;;;;21.55;43.13;95664.31;5028982;28;20299;-64
2022/12/27 02:54:23;;;;;;;11.88;8.73;;;;;;;21.51;43.23;95642.06;5047872;28;20131;-64
2022/12/27 02:57:07;;;;;;;11.48;9.40;;;;;;;21.52;43.13;95648.97;5063048;28;20029;-64
2022/12/27 03:06:38;;;;;;;11.75;8.60;;;;;;;21.48;43.23;95659.31;5035354;28;20047;-63
2022/12/27 03:08:37;;;;;;;11.30;8.63;;;;;;;21.48;43.13;95662.78;5029435;28;20033;-64
2022/12/27 03:17:04;;;;;;;12.68;9.35;;;;;;;21.33;43.27;95636.94;5038677;28;20618;-63
2022/12/27 03:33:11;;;;;;;13.88;10.02;;;;;;;21.23;43.06;95626.72;5043726;28;20052;-63
2022/12/27 03:33:21;;;;;;;11.52;8.90;;;;;;;21.32;43.11;95662.59;5063357;28;20047;-63
2022/12/27 03:38:42;;;;;;;11.93;9.00;;;;;;;21.45;42.92;95665.69;5063335;28;20067;-63
2022/12/27 03:43:51;;;;;;;12.02;9.02;;;;;;;21.40;43.16;95658.22;5033619;28;20056;-63
2022/12/27 03:46:32;;;;;;;12.38;9.07;;;;;;;20.75;43.00;95562.56;5044787;28;20044;-63
2022/12/27 03:49:25;;;;;;;12.07;9.32;;;;;;;21.41;43.14;95659.72;5045620;28;20087;-63
2022/12/27 03:51:59;;;;;;;12.90;9.57;;;;;;;21.17;43.17;95629.38;5044857;28;20044;-63
2022/12/27 03:54:33;;;;;;;12.93;9.68;;;;;;;21.40;43.20;95657.47;5045384;28;20040;-63
2022/12/27 03:57:04;;;;;;;12.93;9.65;;;;;;;21.43;43.32;95662.69;5044802;28;20049;-63
2022/12/27 03:59:30;;;;;;;13.35;9.88;;;;;;;20.77;43.09;95560.09;5028808;28;20115;-62
2022/12/27 04:01:55;;;;;;;12.52;9.57;;;;;;;21.19;43.25;95632.34;5062803;28;20550;-63
2022/12/27 04:04:21;;;;;;;10.90;8.73;;;;;;;21.39;43.24;95656.75;5051738;28;20503;-63
2022/12/27 04:06:46;;;;;;;11.88;8.80;;;;;;;21.29;43.27;95652.69;5044005;28;20166;-63
2022/12/27 04:36:33;;;;;;;13.25;9.77;;;;;;;21.34;43.32;95684.59;5061147;28;20135;-64
2022/12/27 04:38:58;;;;;;;13.13;10.00;;;;;;;21.35;43.26;95686.09;5040239;28;20048;-63
2022/12/27 04:55:24;;;;;;;12.23;9.75;;;;;;;21.33;43.14;95715.72;5038960;28;20056;-63
2022/12/27 04:57:50;;;;;;;11.63;9.48;;;;;;;21.19;43.17;95699.50;5043679;28;20616;-63
2022/12/27 05:03:01;;;;;;;13.07;9.18;;;;;;;21.31;43.24;95710.00;5047099;28;20095;-62
2022/12/27 05:05:26;;;;;;;11.85;9.20;;;;;;;21.18;43.22;95690.59;5065696;28;20025;-63
2022/12/27 05:16:04;;;;;;;12.30;9.07;;;;;;;21.25;43.00;95673.13;5016368;28;20040;-63
2022/12/27 05:18:29;;;;;;;12.23;9.23;;;;;;;21.28;43.19;95683.78;5045432;28;20808;-64
2022/12/27 05:21:00;;;;;;;13.80;9.48;;;;;;;21.29;43.03;95668.97;5027644;28;20103;-64
2022/12/27 05:26:09;;;;;;;12.43;9.52;;;;;;;21.09;43.25;95658.19;5066008;28;20439;-62
2022/12/27 05:28:34;;;;;;;13.10;9.48;;;;;;;21.28;43.04;95672.19;5060824;28;20049;-62
2022/12/27 05:31:01;;;;;;;12.02;9.30;;;;;;;21.13;43.14;95645.13;5060214;28;20580;-62
2022/12/27 05:33:29;;;;;;;12.73;9.60;;;;;;;21.29;43.05;95658.13;5040520;28;20049;-63
2022/12/27 05:35:59;;;;;;;11.97;8.90;;;;;;;21.22;43.03;95647.66;5051078;28;20053;-63
2022/12/27 05:38:24;;;;;;;12.57;9.40;;;;;;;21.25;42.77;95652.16;5068430;28;20036;-63
2022/12/27 05:40:49;;;;;;;12.25;9.60;;;;;;;21.06;43.74;95617.63;5028020;28;20056;-62
2022/12/27 05:43:15;;;;;;;11.52;8.90;;;;;;;21.26;43.00;95648.22;5045363;28;20048;-63
2022/12/27 05:45:40;;;;;;;11.55;8.68;;;;;;;21.26;43.05;95659.06;5044424;28;20036;-63
2022/12/27 05:48:06;;;;;;;11.98;9.27;;;;;;;21.09;43.33;95644.59;5045535;28;20041;-63
2022/12/27 05:50:31;;;;;;;12.02;9.20;;;;;;;21.22;43.21;95674.84;5044910;28;20440;-62
2022/12/27 05:52:57;;;;;;;14.20;9.70;;;;;;;20.94;43.04;95642.44;5044898;28;20478;-63
2022/12/27 05:55:22;;;;;;;12.07;9.30;;;;;;;;;;5044451;28;20048;-63
2022/12/27 05:57:47;;;;;;;13.35;9.25;;;;;;;21.23;43.15;95684.47;5023482;28;20049;-64
2022/12/27 06:00:13;;;;;;;12.95;9.15;;;;;;;21.25;43.06;95690.16;5037911;28;20523;-63
2022/12/27 06:02:40;;;;;;;12.23;8.88;;;;;;;21.11;43.25;95674.72;5026620;28;20738;-63
2022/12/27 06:05:06;;;;;;;11.85;8.60;;;;;;;21.18;43.11;95684.41;5044437;28;20033;-63
2022/12/27 06:07:34;;;;;;;12.90;10.00;;;;;;;21.17;43.19;95699.97;5012533;28;20045;-64
2022/12/27 06:09:59;;;;;;;12.77;9.15;;;;;;;21.23;43.00;95708.94;5041231;28;20055;-63
2022/12/27 06:12:25;;;;;;;12.48;9.10;;;;;;;21.26;43.09;95705.25;5024918;28;20049;-62
2022/12/27 06:14:50;;;;;;;14.55;9.85;;;;;;;20.29;43.13;95599.72;5045085;28;20400;-63
2022/12/27 06:17:15;;;;;;;12.32;9.15;;;;;;;21.35;43.10;95721.41;5026078;28;20463;-64
2022/12/27 06:19:41;;;;;;;12.15;9.10;;;;;;;20.71;43.06;95625.16;5043962;28;20875;-63
2022/12/27 06:22:06;;;;;;;12.70;9.95;;;;;;;20.77;43.17;95606.25;5026640;28;20048;-63
2022/12/27 06:24:32;;;;;;;13.20;8.82;;;;;;;21.55;42.99;95703.13;5028006;28;20047;-64
2022/12/27 06:26:57;;;;;;;12.85;8.98;;;;;;;21.58;43.24;95693.25;5028261;28;20409;-62
2022/12/27 06:29:23;;;;;;;12.90;8.98;;;;;;;21.97;44.01;95714.84;5044025;28;20520;-62
2022/12/27 06:31:48;;;;;;;13.05;8.77;;;;;;;21.41;43.26;95594.50;5043539;28;20680;-62
2022/12/27 06:34:14;;;;;;;11.63;8.32;;;;;;;22.32;43.27;95704.47;5041268;28;20619;-63
2022/12/27 06:36:39;;;;;;;12.82;9.27;;;;;;;21.80;42.74;95609.16;5029856;28;20045;-65
2022/12/27 06:39:04;;;;;;;12.57;8.80;;;;;;;22.62;43.09;95713.81;5044632;28;20366;-63
2022/12/27 06:41:30;;;;;;;10.93;8.57;;;;;;;21.31;43.99;95503.53;5044416;28;20435;-62
2022/12/27 06:43:56;;;;;;;11.77;8.68;;;;;;;22.06;44.22;95600.44;5026629;28;20029;-63
2022/12/27 06:46:24;;;;;;;11.77;8.55;;;;;;;22.78;43.21;95696.78;5027143;28;20033;-65
2022/12/27 06:48:49;;;;;;;12.02;8.75;;;;;;;22.83;42.18;95687.94;5043992;28;20056;-66
2022/12/27 06:51:17;;;;;;;12.25;9.13;;;;;;;23.13;41.67;95725.94;5044443;28;20037;-65
2022/12/27 06:53:42;;;;;;;11.63;8.32;;;;;;;23.13;41.39;95689.78;5044439;28;20032;-66
2022/12/27 06:56:09;;;;;;;11.60;8.73;;;;;;;23.37;41.62;95705.19;5025459;28;20421;-63
2022/12/27 06:58:35;;;;;;;10.35;7.82;;;;;;;23.51;40.86;95698.03;5043522;28;20063;-63
2022/12/27 07:01:13;;;;;;;10.90;7.90;;;;;;;23.58;40.73;95719.38;5025639;28;20417;-63
2022/12/27 07:03:39;;;;;;;11.02;8.35;;;;;;;23.58;40.46;95711.19;5034575;28;20095;-64
2022/12/27 07:06:06;;;;;;;10.90;8.48;;;;;;;23.48;40.50;95682.66;5026895;28;20175;-63
2022/12/27 07:08:32;;;;;;;10.15;8.25;;;;;;;23.69;40.55;95686.69;5042227;28;20032;-62
2022/12/27 07:11:05;;;;;;;11.88;8.73;;;;;;;23.90;40.04;95702.31;5042089;28;20047;-65
2022/12/27 07:13:34;;;;;;;12.55;8.48;;;;;;;23.83;40.03;95658.44;5024526;28;20594;-65
2022/12/27 07:16:09;;;;;;;9.85;8.52;;;;;;;24.03;39.94;95695.13;5023814;28;20052;-64
2022/12/27 07:18:34;;;;;;;11.68;9.35;;;;;;;24.07;39.18;95690.16;5034760;28;20044;-64
2022/12/27 07:21:06;;;;;;;11.82;8.77;;;;;;;24.09;38.92;95686.94;5061332;28;20041;-64
2022/12/27 07:23:32;;;;;;;11.52;9.18;;;;;;;23.69;38.70;95599.44;5060961;28;21520;-64
2022/12/27 07:26:05;;;;;;;11.25;8.82;;;;;;;24.18;39.06;95662.84;5061817;28;20029;-61
2022/12/27 07:28:30;;;;;;;11.85;8.68;;;;;;;23.80;38.81;95594.72;5053328;28;20044;-62
2022/12/27 07:30:55;;;;;;;13.30;9.13;;;;;;;23.81;38.21;95598.19;5062044;28;20516;-63
2022/12/27 07:33:21;;;;;;;11.88;9.32;;;;;;;24.54;38.35;95689.13;5042351;28;20048;-62
2022/12/27 07:35:46;;;;;;;11.52;9.20;;;;;;;24.55;37.96;95685.16;5060254;28;20032;-61
2022/12/27 07:38:12;;;;;;;12.65;9.77;;;;;;;24.27;38.18;95676.25;5061126;28;20498;-63
2022/12/27 07:40:37;;;;;;;13.15;9.93;;;;;;;24.27;38.07;95662.59;5060115;28;20126;-61
2022/12/27 07:43:03;;;;;;;12.93;10.10;;;;;;;24.58;37.70;95695.81;5038878;28;20561;-62
2022/12/27 07:45:28;;;;;;;13.43;9.45;;;;;;;24.58;38.09;95684.16;5044873;28;20572;-65
2022/12/27 07:47:53;;;;;;;15.02;10.25;;;;;;;24.02;37.76;95579.06;5044980;28;20040;-65
2022/12/27 07:50:19;;;;;;;12.30;9.93;;;;;;;24.58;38.11;95652.13;5061697;28;20460;-67
2022/12/27 07:52:44;;;;;;;14.00;10.95;;;;;;;24.75;38.09;95679.38;5042576;28;20512;-66
2022/12/27 07:55:10;;;;;;;13.02;10.15;;;;;;;24.87;38.05;95687.78;5061347;28;20756;-69
2022/12/27 07:57:35;;;;;;;12.93;10.05;;;;;;;24.80;37.70;95665.72;5044775;28;20480;-67
2022/12/27 08:00:01;;;;;;;11.85;9.80;;;;;;;24.97;37.79;95688.97;5044188;28;20052;-67
2022/12/27 08:02:26;;;;;;;12.88;10.35;;;;;;;24.82;37.30;95659.75;5062778;28;20107;-67
2022/12/27 08:04:52;;;;;;;13.05;10.75;;;;;;;24.98;37.59;95695.94;5043761;28;20036;-68
2022/12/27 08:07:17;;;;;;;14.02;10.85;;;;;;;25.03;37.63;95697.91;5013155;28;20052;-68
2022/12/27 08:09:43;;;;;;;11.68;10.38;;;;;;;25.16;36.99;95695.38;5024846;28;20079;-68
2022/12/27 08:12:09;;;;;;;13.27;10.38;;;;;;;24.74;37.30;95645.09;5027697;28;20049;-66
2022/12/27 08:14:34;;;;;;;13.60;10.75;;;;;;;25.27;37.01;95708.25;5061866;28;20098;-67
2022/12/27 08:17:25;;;;;;;13.23;10.32;;;;;;;24.28;37.29;95576.75;5026353;28;20639;-65
2022/12/27 08:19:51;;;;;;;13.60;10.18;;;;;;;25.24;37.47;95707.25;5064363;28;20045;-67
2022/12/27 08:22:17;;;;;;;15.48;11.65;;;;;;;25.46;36.84;95712.63;5045199;28;20055;-67
2022/12/27 08:24:42;;;;;;;12.48;10.52;;;;;;;25.34;37.37;95690.06;5064934;28;20048;-65
2022/12/27 08:27:08;;;;;;;11.60;9.85;;;;;;;25.34;37.47;95708.47;5030256;28;20493;-67
2022/12/27 08:29:34;;;;;;;12.80;10.10;;;;;;;25.38;37.25;95728.06;5030740;28;20025;-67
2022/12/27 08:31:59;;;;;;;13.50;10.90;;;;;;;25.26;37.06;95710.25;5044107;28;20142;-67
2022/12/27 08:34:25;;;;;;;14.43;11.15;;;;;;;25.32;37.45;95697.31;4997976;28;20056;-68
2022/12/27 08:36:50;;;;;;;13.57;11.07;;;;;;;25.40;37.36;95704.44;5041449;28;20616;-68
2022/12/27 08:39:16;;;;;;;13.90;11.30;;;;;;;25.42;37.33;95701.19;5045933;28;20056;-70
2022/12/27 08:41:41;;;;;;;13.40;10.52;;;;;;;25.27;37.57;95678.91;5045873;28;20047;-68
2022/12/27 08:44:08;;;;;;;14.30;11.10;;;;;;;24.83;37.03;95591.66;5048627;28;20043;-69
2022/12/27 08:46:34;;;;;;;13.73;10.85;;;;;;;25.21;37.40;95642.66;5030482;28;20123;-66
2022/12/27 08:48:59;;;;;;;12.57;10.52;;;;;;;24.57;37.32;95546.88;5023025;28;20883;-66
2022/12/27 08:51:25;;;;;;;13.85;11.35;;;;;;;25.34;37.24;95678.38;5046737;28;20560;-64
2022/12/27 08:53:50;;;;;;;13.80;11.68;;;;;;;25.48;36.82;95658.88;5047025;28;20052;-65
2022/12/27 08:56:15;;;;;;;13.35;11.00;;;;;;;25.47;37.39;95709.38;5064507;28;20028;-65
2022/12/27 08:58:41;;;;;;;13.93;11.30;;;;;;;25.31;37.66;95673.94;5044928;28;20052;-65
2022/12/27 09:01:07;;;;;;;14.25;11.52;;;;;;;24.73;37.45;95578.81;5045733;28;20461;-67
2022/12/27 09:03:32;;;;;;;14.30;11.13;;;;;;;25.33;37.55;95668.69;5056947;28;20045;-70
2022/12/27 09:06:27;;;;;;;13.60;11.07;;;;;;;25.48;37.15;95669.09;5044666;28;20051;-65
2022/12/27 09:08:54;;;;;;;13.57;10.88;;;;;;;25.36;37.27;95660.22;5013855;28;20076;-66
2022/12/27 09:11:27;;;;;;;13.50;11.63;;;;;;;25.28;37.57;95664.00;5011636;28;20129;-65
2022/12/27 09:13:52;;;;;;;13.82;10.98;;;;;;;25.41;37.44;95661.44;5045529;28;20061;-67
2022/12/27 09:16:20;;;;;;;15.13;11.48;;;;;;;25.59;37.18;95661.56;5041537;28;20052;-67
2022/12/27 09:18:47;;;;;;;14.65;10.93;;;;;;;25.18;37.22;95582.81;5054673;28;20050;-66
2022/12/27 09:21:12;;;;;;;13.30;11.48;;;;;;;25.54;37.11;95647.91;5033245;28;20039;-67
2022/12/27 09:23:39;;;;;;;13.85;11.35;;;;;;;25.57;36.99;95627.75;5031125;28;20056;-68
2022/12/27 09:26:08;;;;;;;13.68;10.82;;;;;;;25.53;37.25;95630.03;5030446;28;20040;-67
2022/12/27 09:28:34;;;;;;;13.63;11.48;;;;;;;25.72;36.65;95636.38;5024669;28;20053;-68
2022/12/27 09:31:00;;;;;;;12.65;10.63;;;;;;;25.79;37.01;95637.31;5045617;28;20264;-69
2022/12/27 09:33:26;;;;;;;13.85;11.80;;;;;;;25.69;37.10;95616.25;5047173;28;20125;-67
2022/12/27 09:35:51;;;;;;;14.00;11.68;;;;;;;25.54;36.90;95604.91;5045984;28;20045;-67
2022/12/27 09:38:17;;;;;;;13.68;10.95;;;;;;;25.64;36.95;95613.53;5047434;28;20528;-68
2022/12/27 09:40:56;;;;;;;12.85;10.57;;;;;;;25.11;37.20;95537.63;5019927;28;20156;-63
2022/12/27 09:43:27;;;;;;;14.50;11.05;;;;;;;25.76;37.11;95631.38;5026392;28;20037;-65
2022/12/27 09:45:53;;;;;;;13.65;11.52;;;;;;;25.38;37.23;95596.81;5055533;28;20087;-64
2022/12/27 09:48:25;;;;;;;14.60;11.27;;;;;;;25.77;37.00;95624.63;5030437;28;20094;-66
2022/12/27 09:50:56;;;;;;;18.45;11.43;;;;;;;25.85;36.74;95624.31;5062041;28;20060;-65
2022/12/27 09:53:25;;;;;;;14.38;11.65;;;;;;;25.69;37.36;95623.72;5045640;28;20041;-65
2022/12/27 09:55:52;;;;;;;;;;;;;;;25.64;37.52;95608.06;5045303;28;20440;-65
2022/12/27 09:58:32;;;;;;;13.73;11.13;;;;;;;25.79;37.32;95619.41;5062944;28;19916;-67
2022/12/27 10:00:58;;;;;;;14.88;11.20;;;;;;;25.83;37.21;95626.09;5048160;28;20150;-64
2022/12/27 10:03:24;;;;;;;12.80;10.88;;;;;;;25.48;37.32;95573.38;5005541;28;20049;-66
2022/12/27 10:05:54;;;;;;;13.73;11.48;;;;;;;25.92;36.91;95612.81;5004705;28;20156;-65
2022/12/27 10:08:33;;;;;;;14.48;11.18;;;;;;;25.92;37.07;95628.50;5012878;28;20032;-65
2022/12/27 10:11:34;;;;;;;15.33;11.60;;;;;;;25.70;37.56;95584.91;5026542;28;20059;-63
2022/12/27 10:14:21;;;;;;;13.00;11.27;;;;;;;25.65;37.49;95565.78;5015034;28;20755;-64
2022/12/27 10:16:52;;;;;;;14.05;11.55;;;;;;;25.64;37.35;95548.66;5016548;28;20052;-66
2022/12/27 10:19:30;;;;;;;14.40;11.95;;;;;;;25.85;37.17;95575.06;5057481;28;20087;-65
2022/12/27 10:22:29;;;;;;;14.85;11.90;;;;;;;24.69;36.85;95400.06;5061829;28;20052;-65
2022/12/27 10:24:56;;;;;;;14.20;11.93;;;;;;;25.30;37.02;95458.44;5019216;28;20835;-66
2022/12/27 10:27:26;;;;;;;13.85;11.43;;;;;;;25.77;37.08;95573.41;5034651;28;20201;-66
2022/12/27 10:29:52;;;;;;;12.95;11.15;;;;;;;25.80;37.30;95578.59;5069805;28;20059;-64
2022/12/27 10:32:18;;;;;;;13.10;10.52;;;;;;;24.96;37.04;95447.03;5028897;28;20032;-65
2022/12/27 10:34:43;;;;;;;14.15;11.52;;;;;;;25.74;37.60;95562.72;5047893;28;20047;-63
2022/12/27 10:37:13;;;;;;;14.02;11.00;;;;;;;24.96;37.38;95457.97;5025024;28;20044;-63
2022/12/27 10:39:39;;;;;;;12.95;10.98;;;;;;;25.92;37.38;95590.91;5039708;28;20067;-65
2022/12/27 10:42:31;;;;;;;13.85;11.18;;;;;;;26.08;37.26;95587.25;5046185;28;20044;-63
2022/12/27 10:45:25;;;;;;;12.60;10.77;;;;;;;26.08;37.08;95584.53;5040516;28;20094;-68
2022/12/27 10:47:52;;;;;;;14.25;11.63;;;;;;;26.03;36.83;95574.38;5009200;28;20142;-62
2022/12/27 10:50:17;;;;;;;15.35;11.70;;;;;;;25.82;37.01;95558.94;5023259;28;20036;-63
2022/12/27 10:52:43;;;;;;;14.25;11.07;;;;;;;25.93;37.17;95591.66;5001965;28;20052;-63
2022/12/27 10:55:37;;;;;;;15.30;11.63;;;;;;;26.22;36.70;95580.66;5041743;28;20095;-64
2022/12/27 10:58:29;;;;;;;13.70;11.07;;;;;;;26.24;36.77;95578.16;5006205;28;20543;-63
2022/12/27 11:00:55;;;;;;;13.88;11.45;;;;;;;26.28;36.57;95567.69;5022501;28;20052;-64
2022/12/27 11:03:21;;;;;;;13.55;11.27;;;;;;;26.28;36.91;95567.69;5044640;28;20044;-65
2022/12/27 11:06:01;;;;;;;14.10;10.75;;;;;;;26.22;36.95;95545.06;5022589;28;20036;-64
2022/12/27 11:08:26;;;;;;;12.70;10.88;;;;;;;25.48;36.76;95447.56;5041837;28;20037;-65
2022/12/27 11:11:15;;;;;;;14.18;10.93;;;;;;;26.30;36.60;95554.22;5040627;28;20944;-65
2022/12/27 11:13:40;;;;;;;12.95;10.73;;;;;;;26.37;36.58;95564.59;5023674;28;20037;-64
2022/12/27 11:16:22;;;;;;;14.25;10.98;;;;;;;26.31;36.34;95539.28;5006868;28;20209;-65
2022/12/27 11:18:51;;;;;;;12.98;10.48;;;;;;;26.48;36.43;95575.41;4988554;28;20056;-64
2022/12/27 11:21:17;;;;;;;12.93;10.75;;;;;;;25.84;36.45;95486.03;5020954;28;20055;-65
2022/12/27 11:23:45;;;;;;;14.40;11.38;;;;;;;26.44;36.48;95550.31;5043130;28;20032;-65
2022/12/27 11:26:27;;;;;;;14.38;11.68;;;;;;;26.45;36.62;95551.78;5062053;28;20047;-66
2022/12/27 11:28:54;;;;;;;13.93;10.98;;;;;;;26.46;36.69;95545.06;5019129;28;20128;-65
2022/12/27 11:31:35;;;;;;;12.95;10.73;;;;;;;26.43;36.59;95540.63;5008291;28;20422;-64
2022/12/27 11:34:26;;;;;;;11.80;10.48;;;;;;;26.55;36.52;95555.66;5034189;28;20044;-64
2022/12/27 11:36:53;;;;;;;13.45;10.90;;;;;;;26.50;36.51;95545.50;5025312;28;20047;-63
2022/12/27 11:39:38;;;;;;;14.77;11.50;;;;;;;26.54;36.55;95556.91;5034323;28;20412;-64
2022/12/27 11:42:27;;;;;;;13.48;10.85;;;;;;;26.63;36.59;95548.31;5057152;28;20044;-65
2022/12/27 11:45:12;;;;;;;13.48;10.95;;;;;;;26.73;36.18;95557.69;5012416;28;20075;-64
2022/12/27 11:47:55;;;;;;;13.23;10.93;;;;;;;26.75;36.47;95555.16;5039799;28;20021;-61
2022/12/27 11:50:26;;;;;;;13.30;10.75;;;;;;;26.80;36.40;95550.34;5045002;28;20064;-61
2022/12/27 11:53:22;;;;;;;12.05;9.65;;;;;;;26.56;36.46;95559.88;5046981;28;20049;-62
2022/12/27 11:56:10;;;;;;;13.25;10.68;;;;;;;26.37;36.83;95567.34;5043275;28;20051;-63
2022/12/27 11:58:56;;;;;;;11.85;10.20;;;;;;;26.41;36.71;95554.06;5062089;28;20519;-64
2022/12/27 12:01:36;;;;;;;12.75;10.73;;;;;;;26.19;36.97;95553.56;5031754;28;20052;-64
2022/12/27 12:04:23;;;;;;;14.23;11.02;;;;;;;26.20;36.88;95561.25;5063927;28;20066;-65
2022/12/27 12:07:13;;;;;;;12.68;10.52;;;;;;;26.24;36.77;95556.25;5052426;28;20107;-66
2022/12/27 12:09:41;;;;;;;11.93;9.98;;;;;;;26.14;37.21;95557.84;5024258;28;20048;-63
2022/12/27 12:12:55;;;;;;;12.77;10.52;;;;;;;26.27;37.04;95550.50;5050687;28;20048;-63
2022/12/27 12:15:41;;;;;;;11.95;9.88;;;;;;;26.32;36.72;95568.13;5036823;28;20045;-67
2022/12/27 12:18:15;;;;;;;13.50;10.65;;;;;;;26.27;36.81;95552.47;5025141;28;20192;-66
2022/12/27 12:21:01;;;;;;;13.40;10.88;;;;;;;25.58;36.80;95454.19;5037320;28;20028;-67
2022/12/27 12:23:41;;;;;;;12.23;10.15;;;;;;;26.17;37.36;95556.06;5048768;28;20045;-68
2022/12/27 12:26:35;;;;;;;12.27;9.90;;;;;;;26.19;37.27;95554.31;5063029;28;20143;-66
2022/12/27 12:29:09;;;;;;;13.48;10.38;;;;;;;26.23;37.20;95548.53;5031906;28;20057;-68
2022/12/27 12:31:50;;;;;;;12.18;9.95;;;;;;;26.21;37.29;95551.78;5046944;28;20463;-68
2022/12/27 12:34:35;;;;;;;12.80;10.10;;;;;;;26.13;37.27;95556.38;5049425;28;20098;-67
2022/12/27 12:37:25;;;;;;;12.45;10.20;;;;;;;26.03;37.57;95555.22;5047823;28;20060;-66
2022/12/27 12:40:12;;;;;;;12.27;10.27;;;;;;;26.11;37.34;95561.59;5066841;28;20419;-67
2022/12/27 12:43:00;;;;;;;12.32;10.20;;;;;;;25.92;37.71;95546.41;5061950;28;20937;-66
2022/12/27 12:45:36;;;;;;;12.15;9.65;;;;;;;26.01;37.65;95565.94;5048380;28;20041;-67
2022/12/27 12:48:26;;;;;;;12.88;10.00;;;;;;;26.13;37.63;95572.78;5036007;28;20064;-67
2022/12/27 12:51:10;;;;;;;12.70;9.90;;;;;;;26.02;37.55;95567.44;5066058;28;20044;-68
2022/12/27 12:53:43;;;;;;;12.30;9.68;;;;;;;26.02;37.10;95567.44;5054323;28;20044;-67
2022/12/27 12:56:27;;;;;;;13.20;9.90;;;;;;;26.10;37.23;95568.34;5044177;28;20442;-69
2022/12/27 12:59:01;;;;;;;12.32;10.25;;;;;;;26.26;37.14;95575.63;5046384;28;20052;-69
2022/12/27 13:01:26;;;;;;;12.75;10.40;;;;;;;26.24;37.14;95567.19;5027413;28;20052;-68
2022/12/27 13:04:12;;;;;;;12.13;10.20;;;;;;;25.47;37.51;95478.91;5056344;28;20055;-67
2022/12/27 13:07:05;;;;;;;11.07;9.70;;;;;;;26.47;37.07;95590.34;5023383;28;20055;-66
2022/12/27 13:09:54;;;;;;;11.98;9.50;;;;;;;26.22;37.38;95597.09;5070144;28;20040;-65
2022/12/27 13:12:43;;;;;;;12.98;10.25;;;;;;;26.04;37.59;95595.03;5064682;28;20071;-67
2022/12/27 13:15:27;;;;;;;13.07;9.75;;;;;;;26.18;37.41;95596.63;5061376;28;20040;-68